createdAt,value
2023-05-09T00:02:00.343Z,57.44
2023-05-09T00:04:32.925Z,57.95
2023-05-09T00:07:02.843Z,57.93
2023-05-09T00:09:32.288Z,57.74
2023-05-09T00:12:02.639Z,57.84
2023-05-09T00:14:33.652Z,57.95
2023-05-09T00:17:04.012Z,58.40
2023-05-09T00:19:36.673Z,58.80
2023-05-09T00:22:06.296Z,58.40
2023-05-09T00:24:35.652Z,58.75
2023-05-09T00:27:05.011Z,58.59
2023-05-09T00:29:34.445Z,58.39
2023-05-09T00:32:03.868Z,58.90
2023-05-09T00:34:36.497Z,58.58
2023-05-09T00:37:06.527Z,58.64
2023-05-09T00:39:36.045Z,58.33
2023-05-09T00:42:06.197Z,58.66
2023-05-09T00:44:35.755Z,59.32
2023-05-09T00:47:05.455Z,59.68
2023-05-09T00:49:37.903Z,59.32
2023-05-09T00:52:08.136Z,59.61
2023-05-09T00:54:38.202Z,59.74
2023-05-09T00:57:07.781Z,59.59
2023-05-09T00:59:37.512Z,59.83
2023-05-09T01:02:07.119Z,59.42
2023-05-09T01:04:39.511Z,59.77
2023-05-09T01:07:14.938Z,59.48
2023-05-09T01:09:50.331Z,59.94
2023-05-09T01:12:29.207Z,60.12
2023-05-09T01:15:16.769Z,60.10
2023-05-09T01:17:57.396Z,60.41
2023-05-09T01:20:52.328Z,60.37
2023-05-09T01:23:51.671Z,60.35
2023-05-09T01:29:38.136Z,60.52
2023-05-09T01:32:11.387Z,61.09
2023-05-09T01:34:43.738Z,60.95
2023-05-09T01:37:16.418Z,61.24
2023-05-09T01:39:56.906Z,61.26
2023-05-09T01:42:30.845Z,61.63
2023-05-09T01:45:03.731Z,61.29
2023-05-09T01:47:33.935Z,61.68
2023-05-09T01:50:06.200Z,61.16
2023-05-09T01:52:37.768Z,61.24
2023-05-09T01:55:09.575Z,61.37
2023-05-09T01:57:41.735Z,61.65
2023-05-09T02:00:18.510Z,61.60
2023-05-09T02:02:48.723Z,61.78
2023-05-09T02:05:20.108Z,62.29
2023-05-09T02:07:51.380Z,62.24
2023-05-09T02:10:25.624Z,62.48
2023-05-09T02:12:55.413Z,62.31
2023-05-09T02:15:28.172Z,62.59
2023-05-09T02:17:58.538Z,62.77
2023-05-09T02:20:28.412Z,63.09
2023-05-09T02:22:58.645Z,62.43
2023-05-09T02:25:28.575Z,63.00
2023-05-09T02:28:00.745Z,63.32
2023-05-09T02:30:38.377Z,63.37
2023-05-09T02:33:10.593Z,63.23
2023-05-09T02:35:40.950Z,63.43
2023-05-09T02:38:11.544Z,64.18
2023-05-09T02:40:43.109Z,64.17
2023-05-09T02:43:13.044Z,64.07
2023-05-09T02:45:45.336Z,63.88
2023-05-09T02:48:14.984Z,64.15
2023-05-09T02:50:46.155Z,64.21
2023-05-09T02:53:15.827Z,64.78
2023-05-09T02:55:45.297Z,64.76
2023-05-09T02:58:15.227Z,65.15
2023-05-09T03:00:47.586Z,65.58
2023-05-09T03:03:18.447Z,65.86
2023-05-09T03:05:48.442Z,65.64
2023-05-09T03:08:17.964Z,66.45
2023-05-09T03:10:47.919Z,66.11
2023-05-09T03:13:17.555Z,66.65
2023-05-09T03:15:50.269Z,66.41
2023-05-09T03:18:20.074Z,66.44
2023-05-09T03:20:49.995Z,66.78
2023-05-09T03:23:19.645Z,67.23
2023-05-09T03:25:52.637Z,67.13
2023-05-09T03:28:22.035Z,67.37
2023-05-09T03:30:54.011Z,67.27
2023-05-09T03:33:23.736Z,67.53
2023-05-09T03:35:53.051Z,68.08
2023-05-09T03:38:24.389Z,67.16
2023-05-09T03:40:53.932Z,66.92
2023-05-09T03:43:23.306Z,66.72
2023-05-09T03:45:55.196Z,66.59
2023-05-09T03:48:24.548Z,67.16
2023-05-09T03:50:53.945Z,67.10
2023-05-09T03:53:23.398Z,67.59
2023-05-09T03:55:52.853Z,67.28
2023-05-09T03:58:22.220Z,67.54
2023-05-09T04:00:51.631Z,67.92
2023-05-09T04:03:23.658Z,67.62
2023-05-09T04:05:53.140Z,68.01
2023-05-09T04:08:22.509Z,68.46
2023-05-09T04:10:52.574Z,69.02
2023-05-09T04:13:22.011Z,69.86
2023-05-09T04:15:51.690Z,69.84
2023-05-09T04:18:23.947Z,70.07
2023-05-09T04:20:53.585Z,69.69
2023-05-09T04:23:23.210Z,70.28
2023-05-09T04:25:54.526Z,70.84
2023-05-09T04:28:23.964Z,71.44
2023-05-09T04:30:53.877Z,70.55
2023-05-09T04:33:26.452Z,70.98
2023-05-09T04:35:57.930Z,70.61
2023-05-09T04:38:27.274Z,70.60
2023-05-09T04:40:56.666Z,71.14
2023-05-09T04:43:28.254Z,71.35
2023-05-09T04:45:57.732Z,71.34
2023-05-09T04:48:30.351Z,71.76
2023-05-09T04:50:59.767Z,71.71
2023-05-09T04:53:29.740Z,71.52
2023-05-09T04:55:59.208Z,72.36
2023-05-09T04:58:28.604Z,71.90
2023-05-09T05:00:57.961Z,72.97
2023-05-09T05:03:29.915Z,72.92
2023-05-09T05:05:59.290Z,72.22
2023-05-09T05:08:28.631Z,72.62
2023-05-09T05:10:58.348Z,72.77
2023-05-09T05:13:27.992Z,72.65
2023-05-09T05:15:58.540Z,72.93
2023-05-09T05:18:30.638Z,72.98
2023-05-09T05:21:00.095Z,74.00
2023-05-09T05:23:29.709Z,73.19
2023-05-09T05:25:59.110Z,73.85
2023-05-09T05:28:28.535Z,73.78
2023-05-09T05:30:57.910Z,72.98
2023-05-09T05:33:29.855Z,73.39
2023-05-09T05:35:59.227Z,73.52
2023-05-09T05:38:28.540Z,73.42
2023-05-09T05:40:57.859Z,73.67
2023-05-09T05:43:27.230Z,73.93
2023-05-09T05:45:57.554Z,74.12
2023-05-09T05:48:27.504Z,74.03
2023-05-09T05:50:59.400Z,74.46
2023-05-09T05:53:29.429Z,74.26
2023-05-09T05:56:00.142Z,74.60
2023-05-09T05:58:29.472Z,73.84
2023-05-09T06:00:58.832Z,74.22
2023-05-09T06:03:28.247Z,74.12
2023-05-09T06:06:00.366Z,74.12
2023-05-09T06:08:29.780Z,73.76
2023-05-09T06:10:59.128Z,73.63
2023-05-09T06:13:28.584Z,73.33
2023-05-09T06:16:07.716Z,72.57
2023-05-09T06:18:44.899Z,73.02
2023-05-09T06:21:16.823Z,72.36
2023-05-09T06:24:01.990Z,72.83
2023-05-09T06:26:35.744Z,73.89
2023-05-09T06:29:06.093Z,72.28
2023-05-09T06:31:38.560Z,71.50
2023-05-09T06:34:08.398Z,72.10
2023-05-09T06:36:40.745Z,71.02
2023-05-09T06:39:10.142Z,71.86
2023-05-09T06:41:39.442Z,70.95
2023-05-09T06:44:08.743Z,72.24
2023-05-09T06:46:38.164Z,71.44
2023-05-09T06:49:07.669Z,72.12
2023-05-09T06:51:37.051Z,71.28
2023-05-09T06:54:09.131Z,71.53
2023-05-09T06:56:39.210Z,71.70
2023-05-09T06:59:08.589Z,70.59
2023-05-09T07:01:37.923Z,71.05
2023-05-09T07:04:07.670Z,70.71
2023-05-09T07:06:37.064Z,70.79
2023-05-09T07:09:09.051Z,69.69
2023-05-09T07:11:38.993Z,69.88
2023-05-09T07:14:08.308Z,70.01
2023-05-09T07:16:37.926Z,69.37
2023-05-09T07:19:07.437Z,69.63
2023-05-09T07:21:36.737Z,69.78
2023-05-09T07:24:09.229Z,70.06
2023-05-09T07:26:41.356Z,68.22
2023-05-09T07:29:10.827Z,67.96
2023-05-09T07:31:40.223Z,68.32
2023-05-09T07:34:11.362Z,67.62
2023-05-09T07:36:40.703Z,67.78
2023-05-09T07:39:12.708Z,67.92
2023-05-09T07:41:42.346Z,68.01
2023-05-09T07:44:11.767Z,67.23
2023-05-09T07:46:42.257Z,67.37
2023-05-09T07:49:11.630Z,66.71
2023-05-09T07:51:41.481Z,66.63
2023-05-09T07:54:13.732Z,66.19
2023-05-09T07:56:43.048Z,65.13
2023-05-09T07:59:12.403Z,64.99
2023-05-09T08:01:41.823Z,63.95
2023-05-09T08:04:11.274Z,64.04
2023-05-09T08:06:40.698Z,64.30
2023-05-09T08:09:10.429Z,62.23
2023-05-09T08:11:42.756Z,63.01
2023-05-09T08:14:12.800Z,63.17
2023-05-09T08:16:43.468Z,63.29
2023-05-09T08:19:12.867Z,63.31
2023-05-09T08:21:42.269Z,63.16
2023-05-09T08:24:11.658Z,62.58
2023-05-09T08:26:44.264Z,62.87
2023-05-09T08:29:13.588Z,62.29
2023-05-09T08:31:43.374Z,62.42
2023-05-09T08:34:12.715Z,61.25
2023-05-09T08:36:42.179Z,61.45
2023-05-09T08:39:12.238Z,61.71
2023-05-09T08:41:45.770Z,59.98
2023-05-09T08:44:16.060Z,60.17
2023-05-09T08:46:47.093Z,61.02
2023-05-09T08:49:17.529Z,60.64
2023-05-09T08:51:47.673Z,59.15
2023-05-09T08:54:17.143Z,59.35
2023-05-09T08:56:49.208Z,58.52
2023-05-09T08:59:20.158Z,57.92
2023-05-09T09:01:50.400Z,57.31
2023-05-09T09:04:19.881Z,56.87
2023-05-09T09:06:49.497Z,57.45
2023-05-09T09:09:20.885Z,56.82
2023-05-09T09:11:53.392Z,56.61
2023-05-09T09:14:26.916Z,56.92
2023-05-09T09:16:58.818Z,56.47
2023-05-09T09:19:33.684Z,56.46
2023-05-09T09:22:06.434Z,54.69
2023-05-09T09:24:37.137Z,55.56
2023-05-09T09:27:10.603Z,54.53
2023-05-09T09:29:40.308Z,54.13
2023-05-09T09:32:10.131Z,54.69
2023-05-09T09:34:39.571Z,54.86
2023-05-09T09:37:09.413Z,54.92
2023-05-09T09:39:38.809Z,54.68
2023-05-09T09:42:16.731Z,54.22
2023-05-09T09:44:46.273Z,53.77
2023-05-09T09:47:15.706Z,53.14
2023-05-09T09:49:49.703Z,54.19
2023-05-09T09:52:27.130Z,53.33
2023-05-09T09:54:58.654Z,53.09
2023-05-09T09:57:44.180Z,53.35
2023-05-09T10:00:16.096Z,53.77
2023-05-09T10:02:53.808Z,52.66
2023-05-09T10:05:24.703Z,53.23
2023-05-09T10:07:57.123Z,53.65
2023-05-09T10:10:29.345Z,53.83
2023-05-09T10:13:03.029Z,55.11
2023-05-09T10:15:49.407Z,53.76
2023-05-09T10:18:28.003Z,53.38
2023-05-09T10:21:01.101Z,51.64
2023-05-09T10:23:32.273Z,51.98
2023-05-09T10:26:08.137Z,52.92
2023-05-09T10:28:43.180Z,51.96
2023-05-09T10:31:17.648Z,51.39
2023-05-09T10:33:50.495Z,51.78
2023-05-09T10:36:21.817Z,51.04
2023-05-09T10:38:52.353Z,51.12
2023-05-09T10:41:23.876Z,51.79
2023-05-09T10:43:58.482Z,51.52
2023-05-09T10:46:29.137Z,51.72
2023-05-09T10:48:58.941Z,52.01
2023-05-09T10:51:29.232Z,51.13
2023-05-09T10:53:58.596Z,50.98
2023-05-09T10:56:29.607Z,50.89
2023-05-09T10:59:02.238Z,50.96
2023-05-09T11:01:35.538Z,50.83
2023-05-09T11:04:11.474Z,50.37
2023-05-09T11:06:47.712Z,50.33
2023-05-09T11:09:28.578Z,50.67
2023-05-09T11:11:59.964Z,50.80
2023-05-09T11:14:43.222Z,51.11
2023-05-09T11:17:14.659Z,50.00
2023-05-09T11:20:03.732Z,50.23
2023-05-09T11:22:34.913Z,49.80
2023-05-09T11:25:09.309Z,50.37
2023-05-09T11:27:44.760Z,49.75
2023-05-09T11:30:18.373Z,50.18
2023-05-09T11:32:50.156Z,49.86
2023-05-09T11:35:21.598Z,49.47
2023-05-09T11:37:55.288Z,50.13
2023-05-09T11:40:25.714Z,49.22
2023-05-09T11:42:58.565Z,49.66
2023-05-09T11:45:32.418Z,50.36
2023-05-09T11:48:04.217Z,49.63
2023-05-09T11:50:33.678Z,48.72
2023-05-09T11:53:03.750Z,48.63
2023-05-09T11:55:33.061Z,48.98
2023-05-09T11:58:02.605Z,48.77
2023-05-09T12:00:34.604Z,48.08
2023-05-09T12:03:04.088Z,48.39
2023-05-09T12:05:33.761Z,48.73
2023-05-09T12:08:06.239Z,49.73
2023-05-09T12:10:40.331Z,49.01
2023-05-09T12:13:09.755Z,48.49
2023-05-09T12:15:44.699Z,49.17
2023-05-09T12:18:14.153Z,49.19
2023-05-09T12:20:45.485Z,48.52
2023-05-09T12:23:15.747Z,47.11
2023-05-09T12:25:50.731Z,47.36
2023-05-09T12:28:20.963Z,47.90
2023-05-09T12:30:53.825Z,48.63
2023-05-09T12:33:24.001Z,48.31
2023-05-09T12:36:05.875Z,47.63
2023-05-09T12:38:35.907Z,47.92
2023-05-09T12:41:06.698Z,48.51
2023-05-09T12:43:39.571Z,47.11
2023-05-09T12:46:11.540Z,48.27
2023-05-09T12:48:41.945Z,48.54
2023-05-09T12:51:11.303Z,49.08
2023-05-09T12:53:42.858Z,48.07
2023-05-09T12:56:17.062Z,48.30
2023-05-09T12:58:53.926Z,48.49
2023-05-09T13:01:31.004Z,49.05
2023-05-09T13:04:05.850Z,47.74
2023-05-09T13:06:35.845Z,48.05
2023-05-09T13:09:08.195Z,47.65
2023-05-09T13:11:37.991Z,48.38
2023-05-09T13:14:07.482Z,47.74
2023-05-09T13:16:39.767Z,47.54
2023-05-09T13:19:09.377Z,47.43
2023-05-09T13:21:39.370Z,47.72
2023-05-09T13:24:09.381Z,48.07
2023-05-09T13:26:38.727Z,46.92
2023-05-09T13:29:08.855Z,47.18
2023-05-09T13:31:41.003Z,46.69
2023-05-09T13:34:10.361Z,46.93
2023-05-09T13:36:39.692Z,47.35
2023-05-09T13:39:09.287Z,47.37
2023-05-09T13:41:38.708Z,46.41
2023-05-09T13:44:08.025Z,47.33
2023-05-09T13:46:39.981Z,47.38
2023-05-09T13:49:09.327Z,46.39
2023-05-09T13:51:38.659Z,47.54
2023-05-09T13:54:12.630Z,47.46
2023-05-09T13:56:42.902Z,46.82
2023-05-09T13:59:12.483Z,47.26
2023-05-09T14:01:44.532Z,47.47
2023-05-09T14:04:14.009Z,46.33
2023-05-09T14:06:48.127Z,47.66
2023-05-09T14:09:18.220Z,45.74
2023-05-09T14:11:47.841Z,47.31
2023-05-09T14:14:17.214Z,46.67
2023-05-09T14:16:49.612Z,46.61
2023-05-09T14:19:19.944Z,46.37
2023-05-09T14:21:49.639Z,45.81
2023-05-09T14:24:18.975Z,45.70
2023-05-09T14:26:48.324Z,45.37
2023-05-09T14:29:17.649Z,46.32
2023-05-09T14:31:49.671Z,45.65
2023-05-09T14:34:21.485Z,46.18
2023-05-09T14:36:50.865Z,45.17
2023-05-09T14:39:20.685Z,46.42
2023-05-09T14:41:50.433Z,46.02
2023-05-09T14:44:19.891Z,46.15
2023-05-09T14:46:51.890Z,46.49
2023-05-09T14:49:21.234Z,45.43
2023-05-09T14:51:50.549Z,45.90
2023-05-09T14:54:20.089Z,46.21
2023-05-09T14:56:50.747Z,46.76
2023-05-09T14:59:20.262Z,45.26
2023-05-09T15:01:52.829Z,44.69
2023-05-09T15:04:22.327Z,45.37
2023-05-09T15:06:51.687Z,45.41
2023-05-09T15:09:21.627Z,45.05
2023-05-09T15:11:51.158Z,44.53
2023-05-09T15:14:20.914Z,44.82
2023-05-09T15:16:54.126Z,45.12
2023-05-09T15:19:23.739Z,44.00
2023-05-09T15:21:53.249Z,44.51
2023-05-09T15:24:22.637Z,44.72
2023-05-09T15:26:51.953Z,44.22
2023-05-09T15:29:21.817Z,44.80
2023-05-09T15:31:53.909Z,44.35
2023-05-09T15:34:23.388Z,44.41
2023-05-09T15:36:52.740Z,44.95
2023-05-09T15:39:22.549Z,44.04
2023-05-09T15:41:51.927Z,44.15
2023-05-09T15:44:21.258Z,44.60
2023-05-09T15:46:53.193Z,44.64
2023-05-09T15:49:22.558Z,44.43
2023-05-09T15:51:51.981Z,44.66
2023-05-09T15:54:21.363Z,44.89
2023-05-09T15:56:50.785Z,44.43
2023-05-09T15:59:20.236Z,44.26
2023-05-09T16:01:49.628Z,43.66
2023-05-09T16:04:22.013Z,43.36
2023-05-09T16:06:51.779Z,43.52
2023-05-09T16:09:21.810Z,43.87
2023-05-09T16:11:51.144Z,44.12
2023-05-09T16:14:20.595Z,44.01
2023-05-09T16:16:51.579Z,43.39
2023-05-09T16:19:24.236Z,43.33
2023-05-09T16:21:53.656Z,43.58
2023-05-09T16:24:23.107Z,43.73
2023-05-09T16:26:52.503Z,43.56
2023-05-09T16:29:22.529Z,42.82
2023-05-09T16:31:52.149Z,42.65
2023-05-09T16:34:24.242Z,42.60
2023-05-09T16:36:53.668Z,42.70
2023-05-09T16:39:23.947Z,42.34
2023-05-09T16:41:54.304Z,43.45
2023-05-09T16:44:23.964Z,42.60
2023-05-09T16:46:53.411Z,42.56
2023-05-09T16:49:25.473Z,42.16
2023-05-09T16:51:54.858Z,42.62
2023-05-09T16:54:24.350Z,42.80
2023-05-09T16:56:54.255Z,42.88
2023-05-09T16:59:23.646Z,42.66
2023-05-09T17:01:53.939Z,42.74
2023-05-09T17:04:26.861Z,42.33
2023-05-09T17:06:56.229Z,42.29
2023-05-09T17:09:25.812Z,42.11
2023-05-09T17:11:55.425Z,42.93
2023-05-09T17:14:24.816Z,42.23
2023-05-09T17:16:54.610Z,42.78
2023-05-09T17:19:27.116Z,42.24
2023-05-09T17:21:58.977Z,42.33
2023-05-09T17:24:28.537Z,41.89
2023-05-09T17:26:57.930Z,42.40
2023-05-09T17:29:29.247Z,42.31
2023-05-09T17:32:00.956Z,42.53
2023-05-09T17:34:33.618Z,42.42
2023-05-09T17:37:05.829Z,42.61
2023-05-09T17:39:35.388Z,42.65
2023-05-09T17:42:04.722Z,42.21
2023-05-09T17:44:34.301Z,42.72
2023-05-09T17:47:04.135Z,43.23
2023-05-09T17:49:36.537Z,42.85
2023-05-09T17:52:05.925Z,42.83
2023-05-09T17:54:36.505Z,43.73
2023-05-09T17:57:06.112Z,43.68
2023-05-09T17:59:35.478Z,43.52
2023-05-09T18:02:04.867Z,43.78
2023-05-09T18:04:37.308Z,44.16
2023-05-09T18:07:06.981Z,44.19
2023-05-09T18:09:36.379Z,44.54
2023-05-09T18:12:07.702Z,44.68
2023-05-09T18:14:37.093Z,44.53
2023-05-09T18:17:06.488Z,44.44
2023-05-09T18:19:42.118Z,44.70
2023-05-09T18:22:11.698Z,44.72
2023-05-09T18:24:41.115Z,44.58
2023-05-09T18:27:10.465Z,44.71
2023-05-09T18:29:39.870Z,45.20
2023-05-09T18:32:09.588Z,44.62
2023-05-09T18:34:42.077Z,44.06
2023-05-09T18:37:12.428Z,44.62
2023-05-09T18:39:41.857Z,45.52
2023-05-09T18:44:41.065Z,44.67
2023-05-09T18:47:10.730Z,45.02
2023-05-09T18:49:42.983Z,45.54
2023-05-09T18:52:13.240Z,45.07
2023-05-09T18:54:42.646Z,45.03
2023-05-09T18:57:12.087Z,45.54
2023-05-09T18:59:41.465Z,45.28
2023-05-09T19:02:10.854Z,45.62
2023-05-09T19:04:42.980Z,45.65
2023-05-09T19:07:13.525Z,45.43
2023-05-09T19:09:43.091Z,46.11
2023-05-09T19:12:12.553Z,46.06
2023-05-09T19:14:42.287Z,46.29
2023-05-09T19:17:11.832Z,45.65
2023-05-09T19:19:44.013Z,46.03
2023-05-09T19:22:13.511Z,46.08
2023-05-09T19:24:43.443Z,45.65
2023-05-09T19:27:12.836Z,46.35
2023-05-09T19:29:42.210Z,45.86
2023-05-09T19:32:11.612Z,46.27
2023-05-09T19:34:43.764Z,46.63
2023-05-09T19:37:13.184Z,46.66
2023-05-09T19:39:42.546Z,46.57
2023-05-09T19:42:12.241Z,46.57
2023-05-09T19:44:41.832Z,46.77
2023-05-09T19:47:14.369Z,47.11
2023-05-09T19:49:53.773Z,46.95
2023-05-09T19:52:23.489Z,47.36
2023-05-09T19:54:53.104Z,46.83
2023-05-09T19:57:22.943Z,46.82
2023-05-09T19:59:53.586Z,47.27
2023-05-09T20:02:23.159Z,47.30
2023-05-09T20:04:55.560Z,47.42
2023-05-09T20:07:25.276Z,47.60
2023-05-09T20:09:55.070Z,47.54
2023-05-09T20:12:24.942Z,47.55
2023-05-09T20:14:54.689Z,47.94
2023-05-09T20:17:24.544Z,47.54
2023-05-09T20:19:57.650Z,47.86
2023-05-09T20:22:27.386Z,48.26
2023-05-09T20:24:57.107Z,47.84
2023-05-09T20:27:27.025Z,48.68
2023-05-09T20:29:56.874Z,48.77
2023-05-09T20:32:27.737Z,48.73
2023-05-09T20:35:00.161Z,48.74
2023-05-09T20:37:30.087Z,48.57
2023-05-09T20:39:59.933Z,48.85
2023-05-09T20:42:30.042Z,48.61
2023-05-09T20:44:59.844Z,49.19
2023-05-09T20:47:29.679Z,49.14
2023-05-09T20:50:05.292Z,48.82
2023-05-09T20:52:34.999Z,48.76
2023-05-09T20:55:06.005Z,49.03
2023-05-09T20:57:35.698Z,49.06
2023-05-09T21:00:07.692Z,49.03
2023-05-09T21:02:37.513Z,49.09
2023-05-09T21:05:12.637Z,49.54
2023-05-09T21:07:42.506Z,49.60
2023-05-09T21:10:13.447Z,49.23
2023-05-09T21:12:45.352Z,49.94
2023-05-09T21:15:15.298Z,49.17
2023-05-09T21:17:45.896Z,49.35
2023-05-09T21:20:18.904Z,49.12
2023-05-09T21:22:49.095Z,49.29
2023-05-09T21:25:21.770Z,49.52
2023-05-09T21:28:14.594Z,49.21
2023-05-09T21:30:48.467Z,49.31
2023-05-09T21:33:20.057Z,49.33
2023-05-09T21:35:55.862Z,49.23
2023-05-09T21:38:26.527Z,49.11
2023-05-09T21:40:58.537Z,49.25
2023-05-09T21:43:36.535Z,49.62
2023-05-09T21:46:07.829Z,49.79
2023-05-09T21:48:44.757Z,49.91
2023-05-09T21:51:22.749Z,50.00
2023-05-09T21:53:54.554Z,50.33
2023-05-09T21:59:17.831Z,50.40
2023-05-09T22:01:47.597Z,50.57
2023-05-09T22:04:17.120Z,50.17
2023-05-09T22:06:49.360Z,50.27
2023-05-09T22:09:18.915Z,50.47
2023-05-09T22:11:48.498Z,50.62
2023-05-09T22:14:18.317Z,50.75
2023-05-09T22:16:47.893Z,51.07
2023-05-09T22:19:17.524Z,51.27
2023-05-09T22:21:49.661Z,50.66
2023-05-09T22:24:19.058Z,51.21
2023-05-09T22:26:48.546Z,51.40
2023-05-09T22:29:19.227Z,51.48
2023-05-09T22:31:48.855Z,51.64
2023-05-09T22:34:18.217Z,51.77
2023-05-09T22:36:50.371Z,52.19
2023-05-09T22:39:19.827Z,52.56
2023-05-09T22:41:49.175Z,53.23
2023-05-09T22:44:18.537Z,52.98
2023-05-09T22:46:47.985Z,53.21
2023-05-09T22:49:17.670Z,53.38
2023-05-09T22:51:47.114Z,53.96
2023-05-09T22:54:21.571Z,54.18
2023-05-09T22:56:51.229Z,54.48
2023-05-09T22:59:20.650Z,54.39
2023-05-09T23:01:50.370Z,54.55
2023-05-09T23:04:20.156Z,55.29
2023-05-09T23:06:49.856Z,55.42
2023-05-09T23:09:22.438Z,55.42
2023-05-09T23:11:52.021Z,55.34
2023-05-09T23:14:21.654Z,56.24
2023-05-09T23:16:51.765Z,56.16
2023-05-09T23:19:21.221Z,56.39
2023-05-09T23:21:50.869Z,56.46
2023-05-09T23:24:22.999Z,56.63
2023-05-09T23:26:52.418Z,56.78
2023-05-09T23:29:22.117Z,57.19
2023-05-09T23:31:51.811Z,57.08
2023-05-09T23:34:21.305Z,57.76
2023-05-09T23:36:51.180Z,57.29
2023-05-09T23:39:23.204Z,57.53
2023-05-09T23:41:52.627Z,57.96
2023-05-09T23:44:22.096Z,58.17
2023-05-09T23:46:51.837Z,58.42
2023-05-09T23:49:21.838Z,58.46
2023-05-09T23:51:52.296Z,58.52
2023-05-09T23:54:25.836Z,58.22
2023-05-09T23:56:59.294Z,58.73
2023-05-09T23:59:34.593Z,59.04
